Weather at Rafter P Airport

Public forecast

Using degrees Fahrenheit for public forecast. Weather courtesy of forecast.io.

Closest aviation weather report (METAR) to Rafter P Airport

Closest report is Avenger Field, 10.8 nm (19.9 km) WNW. Retrieved 2021/07/27 23:55 UTC (9 minutes ago):

KSWW 272355Z AUTO 13005KT 10SM CLR 37/14 A3003 RMK AO2 T03700138 10392 20358

Closest aviation forecast (TAF) to Rafter P Airport

Closest forecast is Dyess Air Force Base, 21.6 nm (40.1 km) E. Retrieved 2021/07/27 22:42 UTC (1 hour ago):

TAF KDYS 272235Z 2722/2902 VRB06KT 9999 SCT150 QNH2994INS BECMG 2723/2724 VRB06KT 9999 BKN100 QNH2993INS BECMG 2818/2819 14006KT 9999 VCTS BKN080CB QNH2999INS BECMG 2821/2822 10006KT 9000 -TSRA SCT100 BKN200CB QNH2994INS BECMG 2822/2823 10006KT 9999 NSW SCT090 QNH2991INS TX38/2820Z TN25/2812Z